sensor_id;sensor_type;location;lat;lon;timestamp;P1;durP1;ratioP1;P2;durP2;ratioP2
37857;SDS011;23695;55.868;37.472;2022-11-20T00:00:18;34.60;;;17.02;;
37857;SDS011;23695;55.868;37.472;2022-11-20T00:02:45;37.05;;;17.38;;
37857;SDS011;23695;55.868;37.472;2022-11-20T00:05:12;34.90;;;16.23;;
37857;SDS011;23695;55.868;37.472;2022-11-20T00:07:40;31.52;;;18.98;;
37857;SDS011;23695;55.868;37.472;2022-11-20T00:10:07;32.75;;;16.83;;
37857;SDS011;23695;55.868;37.472;2022-11-20T00:12:34;35.10;;;17.77;;
37857;SDS011;23695;55.868;37.472;2022-11-20T00:15:02;31.65;;;17.33;;
37857;SDS011;23695;55.868;37.472;2022-11-20T00:17:30;37.80;;;18.90;;
37857;SDS011;23695;55.868;37.472;2022-11-20T00:19:57;36.83;;;18.80;;
37857;SDS011;23695;55.868;37.472;2022-11-20T00:22:24;34.45;;;19.10;;
37857;SDS011;23695;55.868;37.472;2022-11-20T00:24:51;34.95;;;18.02;;
37857;SDS011;23695;55.868;37.472;2022-11-20T00:27:18;35.75;;;18.67;;
37857;SDS011;23695;55.868;37.472;2022-11-20T00:29:45;33.28;;;19.88;;
37857;SDS011;23695;55.868;37.472;2022-11-20T00:32:12;37.38;;;20.17;;
37857;SDS011;23695;55.868;37.472;2022-11-20T00:34:39;39.35;;;18.92;;
37857;SDS011;23695;55.868;37.472;2022-11-20T00:37:06;34.58;;;19.05;;
37857;SDS011;23695;55.868;37.472;2022-11-20T00:39:33;35.38;;;18.33;;
37857;SDS011;23695;55.868;37.472;2022-11-20T00:42:00;35.55;;;19.60;;
37857;SDS011;23695;55.868;37.472;2022-11-20T00:44:27;29.98;;;17.63;;
37857;SDS011;23695;55.868;37.472;2022-11-20T00:46:54;32.20;;;18.48;;
37857;SDS011;23695;55.868;37.472;2022-11-20T00:49:21;29.10;;;16.50;;
37857;SDS011;23695;55.868;37.472;2022-11-20T00:51:49;25.80;;;15.27;;
37857;SDS011;23695;55.868;37.472;2022-11-20T00:54:16;27.23;;;15.88;;
37857;SDS011;23695;55.868;37.472;2022-11-20T00:56:43;23.10;;;14.68;;
37857;SDS011;23695;55.868;37.472;2022-11-20T00:59:10;28.65;;;16.77;;
37857;SDS011;23695;55.868;37.472;2022-11-20T01:01:37;32.00;;;16.55;;
37857;SDS011;23695;55.868;37.472;2022-11-20T01:04:05;22.73;;;14.75;;
37857;SDS011;23695;55.868;37.472;2022-11-20T01:06:34;26.10;;;16.10;;
37857;SDS011;23695;55.868;37.472;2022-11-20T01:09:04;29.98;;;16.48;;
37857;SDS011;23695;55.868;37.472;2022-11-20T01:11:41;26.13;;;15.50;;
37857;SDS011;23695;55.868;37.472;2022-11-20T01:14:15;25.43;;;14.63;;
37857;SDS011;23695;55.868;37.472;2022-11-20T01:16:45;25.98;;;15.35;;
37857;SDS011;23695;55.868;37.472;2022-11-20T01:19:15;29.20;;;17.35;;
37857;SDS011;23695;55.868;37.472;2022-11-20T01:24:15;27.90;;;16.33;;
37857;SDS011;23695;55.868;37.472;2022-11-20T01:26:44;28.92;;;16.63;;
37857;SDS011;23695;55.868;37.472;2022-11-20T01:29:14;26.90;;;15.65;;
37857;SDS011;23695;55.868;37.472;2022-11-20T01:31:43;26.20;;;14.45;;
37857;SDS011;23695;55.868;37.472;2022-11-20T01:34:17;23.90;;;14.60;;
37857;SDS011;23695;55.868;37.472;2022-11-20T01:36:45;28.45;;;16.23;;
37857;SDS011;23695;55.868;37.472;2022-11-20T01:39:17;26.40;;;15.95;;
37857;SDS011;23695;55.868;37.472;2022-11-20T01:41:47;25.35;;;14.77;;
37857;SDS011;23695;55.868;37.472;2022-11-20T01:44:48;25.85;;;13.93;;
37857;SDS011;23695;55.868;37.472;2022-11-20T01:50:04;23.33;;;14.27;;
37857;SDS011;23695;55.868;37.472;2022-11-20T01:52:50;28.55;;;16.02;;
37857;SDS011;23695;55.868;37.472;2022-11-20T01:55:22;25.63;;;15.95;;
37857;SDS011;23695;55.868;37.472;2022-11-20T01:57:55;27.48;;;16.33;;
37857;SDS011;23695;55.868;37.472;2022-11-20T02:00:22;24.90;;;15.15;;
37857;SDS011;23695;55.868;37.472;2022-11-20T02:02:59;27.38;;;15.50;;
37857;SDS011;23695;55.868;37.472;2022-11-20T02:08:20;25.90;;;15.45;;
37857;SDS011;23695;55.868;37.472;2022-11-20T02:10:49;32.53;;;15.63;;
37857;SDS011;23695;55.868;37.472;2022-11-20T02:13:17;23.85;;;14.02;;
37857;SDS011;23695;55.868;37.472;2022-11-20T02:16:03;25.83;;;14.65;;
37857;SDS011;23695;55.868;37.472;2022-11-20T02:18:32;25.33;;;14.60;;
37857;SDS011;23695;55.868;37.472;2022-11-20T02:21:43;22.65;;;15.13;;
37857;SDS011;23695;55.868;37.472;2022-11-20T02:26:41;28.27;;;15.48;;
37857;SDS011;23695;55.868;37.472;2022-11-20T02:29:15;25.92;;;14.95;;
37857;SDS011;23695;55.868;37.472;2022-11-20T02:31:46;28.13;;;14.95;;
37857;SDS011;23695;55.868;37.472;2022-11-20T02:34:14;24.83;;;13.27;;
37857;SDS011;23695;55.868;37.472;2022-11-20T02:36:41;28.23;;;15.55;;
37857;SDS011;23695;55.868;37.472;2022-11-20T02:39:09;22.95;;;15.07;;
37857;SDS011;23695;55.868;37.472;2022-11-20T02:41:38;24.88;;;15.05;;
37857;SDS011;23695;55.868;37.472;2022-11-20T02:44:05;26.30;;;16.10;;
37857;SDS011;23695;55.868;37.472;2022-11-20T02:46:33;23.80;;;14.80;;
37857;SDS011;23695;55.868;37.472;2022-11-20T02:49:03;22.25;;;13.07;;
37857;SDS011;23695;55.868;37.472;2022-11-20T02:51:31;23.30;;;14.63;;
37857;SDS011;23695;55.868;37.472;2022-11-20T02:53:59;29.33;;;13.55;;
37857;SDS011;23695;55.868;37.472;2022-11-20T02:56:26;20.60;;;12.43;;
37857;SDS011;23695;55.868;37.472;2022-11-20T02:58:53;23.63;;;13.73;;
37857;SDS011;23695;55.868;37.472;2022-11-20T03:01:20;19.85;;;12.73;;
37857;SDS011;23695;55.868;37.472;2022-11-20T03:03:47;24.17;;;13.52;;
37857;SDS011;23695;55.868;37.472;2022-11-20T03:06:15;24.02;;;14.02;;
37857;SDS011;23695;55.868;37.472;2022-11-20T03:08:43;25.77;;;14.60;;
37857;SDS011;23695;55.868;37.472;2022-11-20T03:11:10;19.52;;;12.65;;
37857;SDS011;23695;55.868;37.472;2022-11-20T03:13:38;24.08;;;13.98;;
37857;SDS011;23695;55.868;37.472;2022-11-20T03:16:06;24.92;;;14.45;;
37857;SDS011;23695;55.868;37.472;2022-11-20T03:18:38;21.95;;;14.25;;
37857;SDS011;23695;55.868;37.472;2022-11-20T03:21:06;25.08;;;14.73;;
37857;SDS011;23695;55.868;37.472;2022-11-20T03:23:34;24.92;;;13.90;;
37857;SDS011;23695;55.868;37.472;2022-11-20T03:26:15;23.67;;;14.48;;
37857;SDS011;23695;55.868;37.472;2022-11-20T03:28:51;23.98;;;13.95;;
37857;SDS011;23695;55.868;37.472;2022-11-20T03:31:21;23.45;;;14.95;;
37857;SDS011;23695;55.868;37.472;2022-11-20T03:33:50;24.35;;;14.55;;
37857;SDS011;23695;55.868;37.472;2022-11-20T03:36:19;24.70;;;13.65;;
37857;SDS011;23695;55.868;37.472;2022-11-20T03:38:47;27.73;;;14.65;;
37857;SDS011;23695;55.868;37.472;2022-11-20T03:41:16;27.48;;;14.82;;
37857;SDS011;23695;55.868;37.472;2022-11-20T03:46:16;24.38;;;14.77;;
37857;SDS011;23695;55.868;37.472;2022-11-20T03:48:43;22.40;;;13.90;;
37857;SDS011;23695;55.868;37.472;2022-11-20T03:51:23;21.83;;;13.25;;
37857;SDS011;23695;55.868;37.472;2022-11-20T03:53:52;23.63;;;14.50;;
37857;SDS011;23695;55.868;37.472;2022-11-20T03:56:25;23.60;;;14.30;;
37857;SDS011;23695;55.868;37.472;2022-11-20T03:58:54;24.27;;;13.93;;
37857;SDS011;23695;55.868;37.472;2022-11-20T04:01:22;25.33;;;14.55;;
37857;SDS011;23695;55.868;37.472;2022-11-20T04:04:00;26.17;;;14.70;;
37857;SDS011;23695;55.868;37.472;2022-11-20T04:06:29;23.88;;;15.20;;
37857;SDS011;23695;55.868;37.472;2022-11-20T04:09:00;24.67;;;15.10;;
37857;SDS011;23695;55.868;37.472;2022-11-20T04:11:28;27.63;;;14.88;;
37857;SDS011;23695;55.868;37.472;2022-11-20T04:13:58;23.77;;;14.52;;
37857;SDS011;23695;55.868;37.472;2022-11-20T04:16:29;22.60;;;12.75;;
37857;SDS011;23695;55.868;37.472;2022-11-20T04:21:25;22.73;;;14.13;;
37857;SDS011;23695;55.868;37.472;2022-11-20T04:23:53;24.80;;;14.77;;
37857;SDS011;23695;55.868;37.472;2022-11-20T04:26:22;22.58;;;13.45;;
37857;SDS011;23695;55.868;37.472;2022-11-20T04:28:50;23.45;;;14.43;;
37857;SDS011;23695;55.868;37.472;2022-11-20T04:31:19;22.73;;;13.88;;
37857;SDS011;23695;55.868;37.472;2022-11-20T04:33:48;21.75;;;14.18;;
37857;SDS011;23695;55.868;37.472;2022-11-20T04:36:17;24.02;;;14.52;;
37857;SDS011;23695;55.868;37.472;2022-11-20T04:38:55;23.15;;;14.40;;
37857;SDS011;23695;55.868;37.472;2022-11-20T04:41:26;23.63;;;14.23;;
37857;SDS011;23695;55.868;37.472;2022-11-20T04:46:32;25.70;;;14.55;;
37857;SDS011;23695;55.868;37.472;2022-11-20T04:49:04;25.25;;;14.13;;
37857;SDS011;23695;55.868;37.472;2022-11-20T04:51:33;26.52;;;15.15;;
37857;SDS011;23695;55.868;37.472;2022-11-20T04:54:00;23.02;;;15.10;;
37857;SDS011;23695;55.868;37.472;2022-11-20T04:56:28;25.77;;;15.63;;
37857;SDS011;23695;55.868;37.472;2022-11-20T04:58:55;25.27;;;15.27;;
37857;SDS011;23695;55.868;37.472;2022-11-20T05:01:27;26.05;;;15.15;;
37857;SDS011;23695;55.868;37.472;2022-11-20T05:03:54;27.05;;;14.95;;
37857;SDS011;23695;55.868;37.472;2022-11-20T05:06:21;26.63;;;16.08;;
37857;SDS011;23695;55.868;37.472;2022-11-20T05:08:48;22.23;;;14.63;;
37857;SDS011;23695;55.868;37.472;2022-11-20T05:11:17;27.08;;;16.08;;
37857;SDS011;23695;55.868;37.472;2022-11-20T05:13:47;27.05;;;14.93;;
37857;SDS011;23695;55.868;37.472;2022-11-20T05:16:19;23.85;;;14.63;;
37857;SDS011;23695;55.868;37.472;2022-11-20T05:18:49;27.58;;;16.65;;
37857;SDS011;23695;55.868;37.472;2022-11-20T05:21:17;27.20;;;15.77;;
37857;SDS011;23695;55.868;37.472;2022-11-20T05:23:45;28.45;;;15.90;;
37857;SDS011;23695;55.868;37.472;2022-11-20T05:26:14;25.15;;;16.05;;
37857;SDS011;23695;55.868;37.472;2022-11-20T05:28:42;29.40;;;16.17;;
37857;SDS011;23695;55.868;37.472;2022-11-20T05:31:11;26.02;;;15.23;;
37857;SDS011;23695;55.868;37.472;2022-11-20T05:33:41;29.08;;;17.77;;
37857;SDS011;23695;55.868;37.472;2022-11-20T05:36:10;31.63;;;17.63;;
37857;SDS011;23695;55.868;37.472;2022-11-20T05:38:38;27.35;;;16.50;;
37857;SDS011;23695;55.868;37.472;2022-11-20T05:41:12;31.30;;;17.25;;
37857;SDS011;23695;55.868;37.472;2022-11-20T05:43:45;30.17;;;16.50;;
37857;SDS011;23695;55.868;37.472;2022-11-20T05:46:14;28.30;;;16.38;;
37857;SDS011;23695;55.868;37.472;2022-11-20T05:48:43;27.08;;;16.65;;
37857;SDS011;23695;55.868;37.472;2022-11-20T05:51:11;29.63;;;16.25;;
37857;SDS011;23695;55.868;37.472;2022-11-20T05:53:41;28.35;;;17.85;;
37857;SDS011;23695;55.868;37.472;2022-11-20T05:56:15;30.42;;;17.83;;
37857;SDS011;23695;55.868;37.472;2022-11-20T05:58:45;27.30;;;16.90;;
37857;SDS011;23695;55.868;37.472;2022-11-20T06:01:14;28.52;;;17.23;;
37857;SDS011;23695;55.868;37.472;2022-11-20T06:03:49;27.25;;;16.63;;
37857;SDS011;23695;55.868;37.472;2022-11-20T06:06:17;32.85;;;17.52;;
37857;SDS011;23695;55.868;37.472;2022-11-20T06:08:45;27.85;;;16.83;;
37857;SDS011;23695;55.868;37.472;2022-11-20T06:11:12;30.40;;;17.75;;
37857;SDS011;23695;55.868;37.472;2022-11-20T06:13:40;30.20;;;17.02;;
37857;SDS011;23695;55.868;37.472;2022-11-20T06:16:09;30.38;;;16.95;;
37857;SDS011;23695;55.868;37.472;2022-11-20T06:18:37;31.73;;;18.10;;
37857;SDS011;23695;55.868;37.472;2022-11-20T06:21:15;33.03;;;17.80;;
37857;SDS011;23695;55.868;37.472;2022-11-20T06:23:45;34.85;;;18.88;;
37857;SDS011;23695;55.868;37.472;2022-11-20T06:26:17;31.65;;;18.30;;
37857;SDS011;23695;55.868;37.472;2022-11-20T06:28:47;34.83;;;19.50;;
37857;SDS011;23695;55.868;37.472;2022-11-20T06:31:14;34.45;;;20.95;;
37857;SDS011;23695;55.868;37.472;2022-11-20T06:33:43;36.97;;;20.08;;
37857;SDS011;23695;55.868;37.472;2022-11-20T06:36:11;36.28;;;20.88;;
37857;SDS011;23695;55.868;37.472;2022-11-20T06:38:39;38.75;;;21.02;;
37857;SDS011;23695;55.868;37.472;2022-11-20T06:41:11;37.03;;;20.85;;
37857;SDS011;23695;55.868;37.472;2022-11-20T06:43:41;35.63;;;21.58;;
37857;SDS011;23695;55.868;37.472;2022-11-20T06:46:09;32.95;;;19.33;;
37857;SDS011;23695;55.868;37.472;2022-11-20T06:48:37;38.05;;;21.42;;
37857;SDS011;23695;55.868;37.472;2022-11-20T06:51:05;37.03;;;20.42;;
37857;SDS011;23695;55.868;37.472;2022-11-20T06:53:33;38.90;;;21.65;;
37857;SDS011;23695;55.868;37.472;2022-11-20T06:56:00;40.15;;;22.48;;
37857;SDS011;23695;55.868;37.472;2022-11-20T06:58:28;38.08;;;21.15;;
37857;SDS011;23695;55.868;37.472;2022-11-20T07:01:00;43.13;;;23.17;;
37857;SDS011;23695;55.868;37.472;2022-11-20T07:03:28;39.97;;;21.40;;
37857;SDS011;23695;55.868;37.472;2022-11-20T07:05:56;45.42;;;23.90;;
37857;SDS011;23695;55.868;37.472;2022-11-20T07:08:24;44.47;;;24.10;;
37857;SDS011;23695;55.868;37.472;2022-11-20T07:10:52;40.95;;;21.10;;
37857;SDS011;23695;55.868;37.472;2022-11-20T07:13:19;37.85;;;21.95;;
37857;SDS011;23695;55.868;37.472;2022-11-20T07:15:46;39.22;;;20.77;;
37857;SDS011;23695;55.868;37.472;2022-11-20T07:18:13;37.63;;;21.38;;
37857;SDS011;23695;55.868;37.472;2022-11-20T07:20:40;34.28;;;20.50;;
37857;SDS011;23695;55.868;37.472;2022-11-20T07:23:07;40.10;;;21.70;;
37857;SDS011;23695;55.868;37.472;2022-11-20T07:25:34;34.25;;;19.85;;
37857;SDS011;23695;55.868;37.472;2022-11-20T07:28:01;36.67;;;20.02;;
37857;SDS011;23695;55.868;37.472;2022-11-20T07:30:29;40.58;;;20.83;;
37857;SDS011;23695;55.868;37.472;2022-11-20T07:32:59;44.05;;;21.48;;
37857;SDS011;23695;55.868;37.472;2022-11-20T07:35:27;37.92;;;22.38;;
37857;SDS011;23695;55.868;37.472;2022-11-20T07:37:53;40.25;;;22.08;;
37857;SDS011;23695;55.868;37.472;2022-11-20T07:40:21;45.67;;;22.80;;
37857;SDS011;23695;55.868;37.472;2022-11-20T07:42:52;43.08;;;21.58;;
37857;SDS011;23695;55.868;37.472;2022-11-20T07:45:22;39.80;;;21.48;;
37857;SDS011;23695;55.868;37.472;2022-11-20T07:47:50;38.28;;;21.83;;
37857;SDS011;23695;55.868;37.472;2022-11-20T07:50:18;39.20;;;22.73;;
37857;SDS011;23695;55.868;37.472;2022-11-20T07:52:46;46.63;;;22.40;;
37857;SDS011;23695;55.868;37.472;2022-11-20T07:55:13;42.30;;;23.10;;
37857;SDS011;23695;55.868;37.472;2022-11-20T07:57:41;43.83;;;23.65;;
37857;SDS011;23695;55.868;37.472;2022-11-20T08:00:09;44.63;;;24.73;;
37857;SDS011;23695;55.868;37.472;2022-11-20T08:02:40;46.33;;;25.55;;
37857;SDS011;23695;55.868;37.472;2022-11-20T08:05:08;45.83;;;26.27;;
37857;SDS011;23695;55.868;37.472;2022-11-20T08:07:42;40.10;;;22.87;;
37857;SDS011;23695;55.868;37.472;2022-11-20T08:10:12;45.70;;;26.33;;
37857;SDS011;23695;55.868;37.472;2022-11-20T08:12:49;40.70;;;23.92;;
37857;SDS011;23695;55.868;37.472;2022-11-20T08:15:35;42.42;;;24.40;;
37857;SDS011;23695;55.868;37.472;2022-11-20T08:18:08;55.35;;;26.30;;
37857;SDS011;23695;55.868;37.472;2022-11-20T08:21:00;48.75;;;25.50;;
37857;SDS011;23695;55.868;37.472;2022-11-20T08:23:29;49.40;;;26.92;;
37857;SDS011;23695;55.868;37.472;2022-11-20T08:25:56;51.67;;;26.05;;
37857;SDS011;23695;55.868;37.472;2022-11-20T08:28:24;47.92;;;26.70;;
37857;SDS011;23695;55.868;37.472;2022-11-20T08:30:51;49.90;;;25.73;;
37857;SDS011;23695;55.868;37.472;2022-11-20T08:33:24;52.10;;;26.88;;
37857;SDS011;23695;55.868;37.472;2022-11-20T08:35:57;50.50;;;26.48;;
37857;SDS011;23695;55.868;37.472;2022-11-20T08:38:29;41.63;;;23.35;;
37857;SDS011;23695;55.868;37.472;2022-11-20T08:40:57;49.22;;;24.38;;
37857;SDS011;23695;55.868;37.472;2022-11-20T08:43:43;45.13;;;24.00;;
37857;SDS011;23695;55.868;37.472;2022-11-20T08:48:41;48.17;;;24.55;;
37857;SDS011;23695;55.868;37.472;2022-11-20T08:51:08;42.45;;;23.40;;
37857;SDS011;23695;55.868;37.472;2022-11-20T08:53:36;45.58;;;24.75;;
37857;SDS011;23695;55.868;37.472;2022-11-20T08:56:04;45.70;;;24.95;;
37857;SDS011;23695;55.868;37.472;2022-11-20T08:58:32;44.00;;;25.38;;
37857;SDS011;23695;55.868;37.472;2022-11-20T09:01:19;50.03;;;24.50;;
37857;SDS011;23695;55.868;37.472;2022-11-20T09:03:48;51.20;;;24.85;;
37857;SDS011;23695;55.868;37.472;2022-11-20T09:06:15;50.47;;;24.40;;
37857;SDS011;23695;55.868;37.472;2022-11-20T09:08:43;46.28;;;24.38;;
37857;SDS011;23695;55.868;37.472;2022-11-20T09:11:10;47.90;;;23.05;;
37857;SDS011;23695;55.868;37.472;2022-11-20T09:13:38;46.88;;;23.25;;
37857;SDS011;23695;55.868;37.472;2022-11-20T09:16:06;44.45;;;23.60;;
37857;SDS011;23695;55.868;37.472;2022-11-20T09:18:35;46.37;;;23.47;;
37857;SDS011;23695;55.868;37.472;2022-11-20T09:21:11;43.55;;;25.42;;
37857;SDS011;23695;55.868;37.472;2022-11-20T09:23:40;50.35;;;25.70;;
37857;SDS011;23695;55.868;37.472;2022-11-20T09:26:12;49.97;;;24.48;;
37857;SDS011;23695;55.868;37.472;2022-11-20T09:28:40;50.40;;;22.70;;
37857;SDS011;23695;55.868;37.472;2022-11-20T09:31:08;48.40;;;24.92;;
37857;SDS011;23695;55.868;37.472;2022-11-20T09:33:40;43.47;;;23.60;;
37857;SDS011;23695;55.868;37.472;2022-11-20T09:36:07;54.00;;;25.27;;
37857;SDS011;23695;55.868;37.472;2022-11-20T09:38:35;47.63;;;24.02;;
37857;SDS011;23695;55.868;37.472;2022-11-20T09:41:03;46.70;;;22.88;;
37857;SDS011;23695;55.868;37.472;2022-11-20T09:46:34;48.65;;;23.40;;
37857;SDS011;23695;55.868;37.472;2022-11-20T09:49:14;46.78;;;23.75;;
37857;SDS011;23695;55.868;37.472;2022-11-20T09:51:59;56.10;;;25.33;;
37857;SDS011;23695;55.868;37.472;2022-11-20T09:54:35;48.50;;;24.65;;
37857;SDS011;23695;55.868;37.472;2022-11-20T09:57:17;45.28;;;23.85;;
37857;SDS011;23695;55.868;37.472;2022-11-20T10:00:02;55.00;;;26.13;;
37857;SDS011;23695;55.868;37.472;2022-11-20T10:02:52;51.50;;;25.77;;
37857;SDS011;23695;55.868;37.472;2022-11-20T10:08:22;62.80;;;28.23;;
37857;SDS011;23695;55.868;37.472;2022-11-20T10:10:54;68.07;;;28.95;;
37857;SDS011;23695;55.868;37.472;2022-11-20T10:27:07;64.45;;;28.15;;
37857;SDS011;23695;55.868;37.472;2022-11-20T10:29:46;64.38;;;28.15;;
37857;SDS011;23695;55.868;37.472;2022-11-20T10:32:19;62.85;;;27.77;;
37857;SDS011;23695;55.868;37.472;2022-11-20T10:37:55;63.58;;;28.58;;
37857;SDS011;23695;55.868;37.472;2022-11-20T10:42:59;61.30;;;26.55;;
37857;SDS011;23695;55.868;37.472;2022-11-20T10:48:28;56.58;;;26.50;;
37857;SDS011;23695;55.868;37.472;2022-11-20T10:53:43;56.05;;;28.10;;
37857;SDS011;23695;55.868;37.472;2022-11-20T11:01:53;53.53;;;26.58;;
37857;SDS011;23695;55.868;37.472;2022-11-20T11:04:30;54.65;;;26.88;;
37857;SDS011;23695;55.868;37.472;2022-11-20T11:07:19;56.58;;;25.70;;
37857;SDS011;23695;55.868;37.472;2022-11-20T11:10:21;54.15;;;26.50;;
37857;SDS011;23695;55.868;37.472;2022-11-20T11:13:00;55.88;;;26.38;;
37857;SDS011;23695;55.868;37.472;2022-11-20T11:15:35;56.15;;;25.92;;
37857;SDS011;23695;55.868;37.472;2022-11-20T11:18:10;52.05;;;24.90;;
37857;SDS011;23695;55.868;37.472;2022-11-20T11:20:52;50.17;;;24.65;;
37857;SDS011;23695;55.868;37.472;2022-11-20T11:23:36;42.03;;;22.52;;
37857;SDS011;23695;55.868;37.472;2022-11-20T11:26:06;43.10;;;22.52;;
37857;SDS011;23695;55.868;37.472;2022-11-20T11:31:27;36.13;;;20.42;;
37857;SDS011;23695;55.868;37.472;2022-11-20T11:34:12;35.97;;;19.95;;
37857;SDS011;23695;55.868;37.472;2022-11-20T11:36:40;36.25;;;20.00;;
37857;SDS011;23695;55.868;37.472;2022-11-20T11:39:14;38.10;;;22.10;;
37857;SDS011;23695;55.868;37.472;2022-11-20T11:45:50;35.92;;;18.00;;
37857;SDS011;23695;55.868;37.472;2022-11-20T11:48:42;37.65;;;19.05;;
37857;SDS011;23695;55.868;37.472;2022-11-20T11:51:19;33.13;;;18.85;;
37857;SDS011;23695;55.868;37.472;2022-11-20T11:53:47;29.83;;;17.45;;
37857;SDS011;23695;55.868;37.472;2022-11-20T11:56:14;31.40;;;16.55;;
37857;SDS011;23695;55.868;37.472;2022-11-20T11:59:14;30.30;;;17.40;;
37857;SDS011;23695;55.868;37.472;2022-11-20T12:01:52;37.83;;;17.33;;
37857;SDS011;23695;55.868;37.472;2022-11-20T12:07:15;34.83;;;18.80;;
37857;SDS011;23695;55.868;37.472;2022-11-20T12:10:19;29.60;;;16.65;;
37857;SDS011;23695;55.868;37.472;2022-11-20T12:12:54;28.00;;;16.50;;
37857;SDS011;23695;55.868;37.472;2022-11-20T12:15:31;30.25;;;17.08;;
37857;SDS011;23695;55.868;37.472;2022-11-20T12:18:01;27.30;;;17.45;;
37857;SDS011;23695;55.868;37.472;2022-11-20T12:20:31;30.33;;;17.92;;
37857;SDS011;23695;55.868;37.472;2022-11-20T12:23:09;31.48;;;17.65;;
37857;SDS011;23695;55.868;37.472;2022-11-20T12:25:47;33.47;;;16.40;;
37857;SDS011;23695;55.868;37.472;2022-11-20T12:39:30;32.75;;;17.95;;
37857;SDS011;23695;55.868;37.472;2022-11-20T13:07:30;31.75;;;17.95;;
37857;SDS011;23695;55.868;37.472;2022-11-20T13:09:58;37.08;;;18.35;;
37857;SDS011;23695;55.868;37.472;2022-11-20T13:12:31;35.85;;;18.73;;
37857;SDS011;23695;55.868;37.472;2022-11-20T13:15:26;39.05;;;18.52;;
37857;SDS011;23695;55.868;37.472;2022-11-20T13:18:08;32.45;;;19.27;;
37857;SDS011;23695;55.868;37.472;2022-11-20T13:20:41;34.42;;;18.75;;
37857;SDS011;23695;55.868;37.472;2022-11-20T13:23:10;33.70;;;17.80;;
37857;SDS011;23695;55.868;37.472;2022-11-20T13:25:38;40.92;;;19.23;;
37857;SDS011;23695;55.868;37.472;2022-11-20T13:30:51;34.72;;;17.90;;
37857;SDS011;23695;55.868;37.472;2022-11-20T13:38:54;31.70;;;18.80;;
37857;SDS011;23695;55.868;37.472;2022-11-20T13:41:27;32.38;;;18.15;;
37857;SDS011;23695;55.868;37.472;2022-11-20T13:44:13;34.83;;;19.60;;
37857;SDS011;23695;55.868;37.472;2022-11-20T13:46:47;38.83;;;18.90;;
37857;SDS011;23695;55.868;37.472;2022-11-20T13:50:00;30.67;;;18.00;;
37857;SDS011;23695;55.868;37.472;2022-11-20T13:58:44;28.90;;;17.58;;
37857;SDS011;23695;55.868;37.472;2022-11-20T14:01:10;27.90;;;16.98;;
37857;SDS011;23695;55.868;37.472;2022-11-20T14:03:43;27.38;;;17.20;;
37857;SDS011;23695;55.868;37.472;2022-11-20T14:06:31;34.92;;;18.80;;
37857;SDS011;23695;55.868;37.472;2022-11-20T14:09:01;31.20;;;17.30;;
37857;SDS011;23695;55.868;37.472;2022-11-20T14:11:29;30.02;;;17.67;;
37857;SDS011;23695;55.868;37.472;2022-11-20T14:14:19;37.25;;;20.27;;
37857;SDS011;23695;55.868;37.472;2022-11-20T14:16:48;31.60;;;18.50;;
37857;SDS011;23695;55.868;37.472;2022-11-20T14:21:47;30.15;;;18.70;;
37857;SDS011;23695;55.868;37.472;2022-11-20T14:24:19;34.45;;;19.65;;
37857;SDS011;23695;55.868;37.472;2022-11-20T14:26:47;36.70;;;18.50;;
37857;SDS011;23695;55.868;37.472;2022-11-20T14:29:16;29.95;;;17.20;;
37857;SDS011;23695;55.868;37.472;2022-11-20T14:31:46;32.77;;;18.53;;
37857;SDS011;23695;55.868;37.472;2022-11-20T14:34:21;31.70;;;18.73;;
37857;SDS011;23695;55.868;37.472;2022-11-20T14:36:52;32.08;;;18.02;;
37857;SDS011;23695;55.868;37.472;2022-11-20T14:39:33;33.67;;;18.50;;
37857;SDS011;23695;55.868;37.472;2022-11-20T14:42:15;37.47;;;18.90;;
37857;SDS011;23695;55.868;37.472;2022-11-20T14:44:45;32.92;;;20.05;;
37857;SDS011;23695;55.868;37.472;2022-11-20T14:47:18;31.90;;;19.52;;
37857;SDS011;23695;55.868;37.472;2022-11-20T14:49:49;34.30;;;19.48;;
37857;SDS011;23695;55.868;37.472;2022-11-20T14:52:19;32.58;;;18.85;;
37857;SDS011;23695;55.868;37.472;2022-11-20T14:54:50;34.30;;;20.40;;
37857;SDS011;23695;55.868;37.472;2022-11-20T15:00:07;39.92;;;20.13;;
37857;SDS011;23695;55.868;37.472;2022-11-20T15:02:41;41.80;;;20.77;;
37857;SDS011;23695;55.868;37.472;2022-11-20T15:05:15;45.63;;;22.75;;
37857;SDS011;23695;55.868;37.472;2022-11-20T15:07:48;37.80;;;23.15;;
37857;SDS011;23695;55.868;37.472;2022-11-20T15:10:22;45.35;;;24.92;;
37857;SDS011;23695;55.868;37.472;2022-11-20T15:12:54;40.47;;;22.05;;
37857;SDS011;23695;55.868;37.472;2022-11-20T15:17:58;36.63;;;20.92;;
37857;SDS011;23695;55.868;37.472;2022-11-20T15:20:27;35.92;;;20.88;;
37857;SDS011;23695;55.868;37.472;2022-11-20T15:22:57;44.72;;;22.45;;
37857;SDS011;23695;55.868;37.472;2022-11-20T15:25:25;43.38;;;23.08;;
37857;SDS011;23695;55.868;37.472;2022-11-20T15:27:54;38.92;;;22.05;;
37857;SDS011;23695;55.868;37.472;2022-11-20T15:30:23;33.33;;;20.33;;
37857;SDS011;23695;55.868;37.472;2022-11-20T15:32:51;30.02;;;18.27;;
37857;SDS011;23695;55.868;37.472;2022-11-20T15:35:18;35.08;;;19.50;;
37857;SDS011;23695;55.868;37.472;2022-11-20T15:37:45;29.30;;;18.52;;
37857;SDS011;23695;55.868;37.472;2022-11-20T15:40:13;28.92;;;18.65;;
37857;SDS011;23695;55.868;37.472;2022-11-20T15:42:40;32.92;;;19.27;;
37857;SDS011;23695;55.868;37.472;2022-11-20T15:45:27;28.38;;;17.75;;
37857;SDS011;23695;55.868;37.472;2022-11-20T15:48:02;30.90;;;17.48;;
37857;SDS011;23695;55.868;37.472;2022-11-20T15:50:34;27.42;;;16.55;;
37857;SDS011;23695;55.868;37.472;2022-11-20T15:53:05;29.73;;;18.77;;
37857;SDS011;23695;55.868;37.472;2022-11-20T15:55:32;44.35;;;24.83;;
37857;SDS011;23695;55.868;37.472;2022-11-20T15:57:59;49.13;;;25.67;;
37857;SDS011;23695;55.868;37.472;2022-11-20T16:00:26;50.67;;;26.77;;
37857;SDS011;23695;55.868;37.472;2022-11-20T16:02:53;52.13;;;26.15;;
37857;SDS011;23695;55.868;37.472;2022-11-20T16:05:20;58.50;;;27.80;;
37857;SDS011;23695;55.868;37.472;2022-11-20T16:07:50;37.10;;;21.85;;
37857;SDS011;23695;55.868;37.472;2022-11-20T16:10:17;32.88;;;19.40;;
37857;SDS011;23695;55.868;37.472;2022-11-20T16:12:44;35.63;;;20.13;;
37857;SDS011;23695;55.868;37.472;2022-11-20T16:15:30;36.97;;;20.60;;
37857;SDS011;23695;55.868;37.472;2022-11-20T16:18:20;38.13;;;21.77;;
37857;SDS011;23695;55.868;37.472;2022-11-20T16:20:48;37.50;;;19.92;;
37857;SDS011;23695;55.868;37.472;2022-11-20T16:23:18;40.88;;;22.65;;
37857;SDS011;23695;55.868;37.472;2022-11-20T16:25:45;35.65;;;21.08;;
37857;SDS011;23695;55.868;37.472;2022-11-20T16:28:13;36.40;;;20.38;;
37857;SDS011;23695;55.868;37.472;2022-11-20T16:30:44;34.95;;;20.02;;
37857;SDS011;23695;55.868;37.472;2022-11-20T16:33:13;34.10;;;19.85;;
37857;SDS011;23695;55.868;37.472;2022-11-20T16:35:41;30.00;;;18.52;;
37857;SDS011;23695;55.868;37.472;2022-11-20T16:38:08;30.95;;;17.95;;